sensor_id;sensor_type;location;lat;lon;timestamp;pressure;altitude;pressure_sealevel;temperature;humidity
11710;BME280;5911;51.036;6.972;2022-07-23T00:01:17;100945.97;;;20.70;100.00
11710;BME280;5911;51.036;6.972;2022-07-23T00:03:56;100946.06;;;20.62;100.00
11710;BME280;5911;51.036;6.972;2022-07-23T00:06:29;100950.97;;;20.58;100.00
11710;BME280;5911;51.036;6.972;2022-07-23T00:08:58;100939.88;;;20.61;100.00
11710;BME280;5911;51.036;6.972;2022-07-23T00:11:26;100945.97;;;20.55;100.00
11710;BME280;5911;51.036;6.972;2022-07-23T00:13:54;100954.34;;;20.52;100.00
11710;BME280;5911;51.036;6.972;2022-07-23T00:16:28;100947.50;;;20.50;100.00
11710;BME280;5911;51.036;6.972;2022-07-23T00:18:56;100955.53;;;20.50;100.00
11710;BME280;5911;51.036;6.972;2022-07-23T00:21:24;100954.25;;;20.46;100.00
11710;BME280;5911;51.036;6.972;2022-07-23T00:23:52;100956.94;;;20.46;100.00
11710;BME280;5911;51.036;6.972;2022-07-23T00:26:20;100960.63;;;20.45;100.00
11710;BME280;5911;51.036;6.972;2022-07-23T00:28:48;100950.28;;;20.42;100.00
11710;BME280;5911;51.036;6.972;2022-07-23T00:31:16;100951.09;;;20.42;100.00
11710;BME280;5911;51.036;6.972;2022-07-23T00:33:45;100950.28;;;20.42;100.00
11710;BME280;5911;51.036;6.972;2022-07-23T00:36:13;100944.06;;;20.41;100.00
11710;BME280;5911;51.036;6.972;2022-07-23T00:38:42;100952.13;;;20.41;100.00
11710;BME280;5911;51.036;6.972;2022-07-23T00:41:09;100950.28;;;20.42;100.00
11710;BME280;5911;51.036;6.972;2022-07-23T00:43:40;100946.28;;;20.38;100.00
11710;BME280;5911;51.036;6.972;2022-07-23T00:46:08;100950.81;;;20.37;100.00
11710;BME280;5911;51.036;6.972;2022-07-23T00:48:36;100949.28;;;20.34;100.00
11710;BME280;5911;51.036;6.972;2022-07-23T00:51:06;100944.75;;;20.35;100.00
11710;BME280;5911;51.036;6.972;2022-07-23T00:53:34;100938.75;;;20.33;100.00
11710;BME280;5911;51.036;6.972;2022-07-23T00:56:02;100934.41;;;20.32;100.00
11710;BME280;5911;51.036;6.972;2022-07-23T00:58:31;100921.22;;;20.30;100.00
11710;BME280;5911;51.036;6.972;2022-07-23T01:01:01;100918.69;;;20.29;100.00
11710;BME280;5911;51.036;6.972;2022-07-23T01:03:32;100918.31;;;20.32;100.00
11710;BME280;5911;51.036;6.972;2022-07-23T01:06:00;100904.47;;;20.28;100.00
11710;BME280;5911;51.036;6.972;2022-07-23T01:08:30;100921.22;;;20.30;100.00
11710;BME280;5911;51.036;6.972;2022-07-23T01:10:58;100923.59;;;20.25;100.00
11710;BME280;5911;51.036;6.972;2022-07-23T01:13:26;100921.09;;;20.24;100.00
11710;BME280;5911;51.036;6.972;2022-07-23T01:15:54;100923.28;;;20.20;100.00
11710;BME280;5911;51.036;6.972;2022-07-23T01:18:22;100931.13;;;20.22;100.00
11710;BME280;5911;51.036;6.972;2022-07-23T01:20:52;100929.28;;;20.22;100.00
11710;BME280;5911;51.036;6.972;2022-07-23T01:23:21;100933.47;;;20.25;100.00
11710;BME280;5911;51.036;6.972;2022-07-23T01:25:54;100929.28;;;20.22;100.00
11710;BME280;5911;51.036;6.972;2022-07-23T01:28:24;100928.47;;;20.22;100.00
11710;BME280;5911;51.036;6.972;2022-07-23T01:30:53;100924.94;;;20.21;100.00
11710;BME280;5911;51.036;6.972;2022-07-23T01:33:21;100929.66;;;20.19;100.00
11710;BME280;5911;51.036;6.972;2022-07-23T01:35:49;100924.28;;;20.19;100.00
11710;BME280;5911;51.036;6.972;2022-07-23T01:38:23;100922.28;;;20.21;100.00
11710;BME280;5911;51.036;6.972;2022-07-23T01:40:51;100915.91;;;20.22;100.00
11710;BME280;5911;51.036;6.972;2022-07-23T01:43:24;100911.72;;;20.20;100.00
11710;BME280;5911;51.036;6.972;2022-07-23T01:45:53;100915.25;;;20.20;100.00
11710;BME280;5911;51.036;6.972;2022-07-23T01:48:23;100917.25;;;20.18;100.00
11710;BME280;5911;51.036;6.972;2022-07-23T01:51:10;100913.56;;;20.19;100.00
11710;BME280;5911;51.036;6.972;2022-07-23T01:53:43;100913.97;;;20.16;100.00
11710;BME280;5911;51.036;6.972;2022-07-23T01:56:11;100911.81;;;20.12;100.00
11710;BME280;5911;51.036;6.972;2022-07-23T01:58:41;100911.34;;;20.08;100.00
11710;BME280;5911;51.036;6.972;2022-07-23T02:01:09;100918.88;;;20.05;100.00
11710;BME280;5911;51.036;6.972;2022-07-23T02:03:37;100908.00;;;20.06;100.00
11710;BME280;5911;51.036;6.972;2022-07-23T02:06:05;100907.50;;;20.02;100.00
11710;BME280;5911;51.036;6.972;2022-07-23T02:08:33;100906.69;;;20.02;100.00
11710;BME280;5911;51.036;6.972;2022-07-23T02:11:03;100910.56;;;19.99;100.00
11710;BME280;5911;51.036;6.972;2022-07-23T02:13:32;100904.38;;;19.99;100.00
11710;BME280;5911;51.036;6.972;2022-07-23T02:16:00;100906.41;;;19.97;100.00
11710;BME280;5911;51.036;6.972;2022-07-23T02:18:28;100905.03;;;20.01;100.00
11710;BME280;5911;51.036;6.972;2022-07-23T02:20:56;100910.00;;;20.04;100.00
11710;BME280;5911;51.036;6.972;2022-07-23T02:23:24;100910.75;;;19.98;100.00
11710;BME280;5911;51.036;6.972;2022-07-23T02:25:53;100902.53;;;19.99;100.00
11710;BME280;5911;51.036;6.972;2022-07-23T02:28:22;100900.69;;;20.00;100.00
11710;BME280;5911;51.036;6.972;2022-07-23T02:30:50;100898.19;;;19.98;100.00
11710;BME280;5911;51.036;6.972;2022-07-23T02:33:18;100898.38;;;19.97;100.00
11710;BME280;5911;51.036;6.972;2022-07-23T02:35:46;100897.38;;;19.98;100.00
11710;BME280;5911;51.036;6.972;2022-07-23T02:38:15;100903.56;;;19.98;100.00
11710;BME280;5911;51.036;6.972;2022-07-23T02:40:42;100909.78;;;19.91;100.00
11710;BME280;5911;51.036;6.972;2022-07-23T02:43:10;100906.09;;;19.92;100.00
11710;BME280;5911;51.036;6.972;2022-07-23T02:45:42;100909.78;;;19.91;100.00
11710;BME280;5911;51.036;6.972;2022-07-23T02:48:10;100920.84;;;19.88;100.00
11710;BME280;5911;51.036;6.972;2022-07-23T02:50:41;100914.47;;;19.89;100.00
11710;BME280;5911;51.036;6.972;2022-07-23T02:53:12;100914.47;;;19.89;100.00
11710;BME280;5911;51.036;6.972;2022-07-23T02:55:41;100912.81;;;19.88;100.00
11710;BME280;5911;51.036;6.972;2022-07-23T02:58:09;100914.47;;;19.89;100.00
11710;BME280;5911;51.036;6.972;2022-07-23T03:00:37;100916.31;;;19.88;100.00
11710;BME280;5911;51.036;6.972;2022-07-23T03:03:07;100910.31;;;19.86;100.00
11710;BME280;5911;51.036;6.972;2022-07-23T03:05:35;100909.31;;;19.87;100.00
11710;BME280;5911;51.036;6.972;2022-07-23T03:08:04;100906.63;;;19.87;100.00
11710;BME280;5911;51.036;6.972;2022-07-23T03:10:36;100911.53;;;19.84;100.00
11710;BME280;5911;51.036;6.972;2022-07-23T03:13:04;100916.41;;;19.80;100.00
11710;BME280;5911;51.036;6.972;2022-07-23T03:15:32;100910.88;;;19.82;100.00
11710;BME280;5911;51.036;6.972;2022-07-23T03:18:00;100913.72;;;19.80;100.00
11710;BME280;5911;51.036;6.972;2022-07-23T03:20:30;100907.88;;;19.77;100.00
11710;BME280;5911;51.036;6.972;2022-07-23T03:22:58;100907.22;;;19.75;100.00
11710;BME280;5911;51.036;6.972;2022-07-23T03:25:27;100914.41;;;19.74;100.00
11710;BME280;5911;51.036;6.972;2022-07-23T03:27:55;100913.97;;;19.71;100.00
11710;BME280;5911;51.036;6.972;2022-07-23T03:30:25;100906.94;;;19.70;100.00
11710;BME280;5911;51.036;6.972;2022-07-23T03:32:54;100905.28;;;19.69;100.00
11710;BME280;5911;51.036;6.972;2022-07-23T03:35:24;100911.63;;;19.67;100.00
11710;BME280;5911;51.036;6.972;2022-07-23T03:38:08;100911.63;;;19.67;100.00
11710;BME280;5911;51.036;6.972;2022-07-23T03:40:36;100913.00;;;19.63;100.00
11710;BME280;5911;51.036;6.972;2022-07-23T03:43:04;100911.97;;;19.64;100.00
11710;BME280;5911;51.036;6.972;2022-07-23T03:45:33;100910.66;;;19.60;100.00
11710;BME280;5911;51.036;6.972;2022-07-23T03:48:01;100913.34;;;19.60;100.00
11710;BME280;5911;51.036;6.972;2022-07-23T03:50:29;100910.84;;;19.59;100.00
11710;BME280;5911;51.036;6.972;2022-07-23T03:52:56;100916.19;;;19.59;100.00
11710;BME280;5911;51.036;6.972;2022-07-23T03:55:26;100914.53;;;19.58;100.00
11710;BME280;5911;51.036;6.972;2022-07-23T03:57:55;100914.06;;;19.54;100.00
11710;BME280;5911;51.036;6.972;2022-07-23T04:00:23;100907.38;;;19.50;100.00
11710;BME280;5911;51.036;6.972;2022-07-23T04:02:51;100916.06;;;19.52;100.00
11710;BME280;5911;51.036;6.972;2022-07-23T04:05:19;100914.41;;;19.51;100.00
11710;BME280;5911;51.036;6.972;2022-07-23T04:07:51;100916.41;;;19.49;100.00
11710;BME280;5911;51.036;6.972;2022-07-23T04:10:20;100914.72;;;19.48;100.00
11710;BME280;5911;51.036;6.972;2022-07-23T04:12:49;100911.91;;;19.50;100.00
11710;BME280;5911;51.036;6.972;2022-07-23T04:15:17;100917.25;;;19.50;100.00
11710;BME280;5911;51.036;6.972;2022-07-23T04:17:48;100925.41;;;19.48;100.00
11710;BME280;5911;51.036;6.972;2022-07-23T04:20:18;100914.72;;;19.48;100.00
11710;BME280;5911;51.036;6.972;2022-07-23T04:22:53;100918.09;;;19.50;100.00
11710;BME280;5911;51.036;6.972;2022-07-23T04:25:22;100920.06;;;19.48;100.00
11710;BME280;5911;51.036;6.972;2022-07-23T04:30:33;100924.59;;;19.48;100.00
11710;BME280;5911;51.036;6.972;2022-07-23T04:33:02;100932.13;;;19.52;100.00
11710;BME280;5911;51.036;6.972;2022-07-23T04:35:33;100935.66;;;19.53;100.00
11710;BME280;5911;51.036;6.972;2022-07-23T04:38:11;100935.81;;;19.51;100.00
11710;BME280;5911;51.036;6.972;2022-07-23T04:40:39;100938.66;;;19.50;100.00
11710;BME280;5911;51.036;6.972;2022-07-23T04:43:07;100952.03;;;19.50;100.00
11710;BME280;5911;51.036;6.972;2022-07-23T04:45:43;100956.56;;;19.49;100.00
11710;BME280;5911;51.036;6.972;2022-07-23T04:48:11;100946.34;;;19.45;100.00
11710;BME280;5911;51.036;6.972;2022-07-23T04:50:40;100935.84;;;19.35;100.00
11710;BME280;5911;51.036;6.972;2022-07-23T04:53:21;100969.94;;;19.49;100.00
11710;BME280;5911;51.036;6.972;2022-07-23T04:55:52;100971.25;;;19.45;100.00
11710;BME280;5911;51.036;6.972;2022-07-23T04:58:20;100973.94;;;19.45;100.00
11710;BME280;5911;51.036;6.972;2022-07-23T05:00:49;100971.59;;;19.42;100.00
11710;BME280;5911;51.036;6.972;2022-07-23T05:03:17;100972.44;;;19.43;100.00
11710;BME280;5911;51.036;6.972;2022-07-23T05:05:46;100962.78;;;19.33;100.00
11710;BME280;5911;51.036;6.972;2022-07-23T05:08:16;100972.81;;;19.40;100.00
11710;BME280;5911;51.036;6.972;2022-07-23T05:10:49;100982.69;;;19.39;100.00
11710;BME280;5911;51.036;6.972;2022-07-23T05:13:19;100971.16;;;19.30;100.00
11710;BME280;5911;51.036;6.972;2022-07-23T05:15:51;100969.97;;;19.33;100.00
11710;BME280;5911;51.036;6.972;2022-07-23T05:18:20;100983.31;;;19.41;100.00
11710;BME280;5911;51.036;6.972;2022-07-23T05:20:48;100994.69;;;19.51;100.00
11710;BME280;5911;51.036;6.972;2022-07-23T05:23:19;101000.03;;;19.51;100.00
11710;BME280;5911;51.036;6.972;2022-07-23T05:25:48;100996.38;;;19.52;100.00
11710;BME280;5911;51.036;6.972;2022-07-23T05:28:16;100988.97;;;19.46;100.00
11710;BME280;5911;51.036;6.972;2022-07-23T05:30:49;100988.66;;;19.49;100.00
11710;BME280;5911;51.036;6.972;2022-07-23T05:33:19;101001.16;;;19.57;100.00
11710;BME280;5911;51.036;6.972;2022-07-23T05:35:47;100996.81;;;19.56;100.00
11710;BME280;5911;51.036;6.972;2022-07-23T05:38:27;100987.66;;;19.50;100.00
11710;BME280;5911;51.036;6.972;2022-07-23T05:40:57;101001.50;;;19.62;100.00
11710;BME280;5911;51.036;6.972;2022-07-23T05:43:27;100989.16;;;19.53;100.00
11710;BME280;5911;51.036;6.972;2022-07-23T05:45:58;100996.63;;;19.65;100.00
11710;BME280;5911;51.036;6.972;2022-07-23T05:48:27;100984.94;;;19.58;100.00
11710;BME280;5911;51.036;6.972;2022-07-23T05:51:05;101003.66;;;19.66;100.00
11710;BME280;5911;51.036;6.972;2022-07-23T05:53:34;100996.13;;;19.62;100.00
11710;BME280;5911;51.036;6.972;2022-07-23T05:56:19;101014.84;;;19.70;100.00
11710;BME280;5911;51.036;6.972;2022-07-23T05:58:48;101005.63;;;19.73;100.00
11710;BME280;5911;51.036;6.972;2022-07-23T06:01:17;101006.28;;;19.75;100.00
11710;BME280;5911;51.036;6.972;2022-07-23T06:03:57;101016.63;;;19.78;100.00
11710;BME280;5911;51.036;6.972;2022-07-23T06:06:32;101012.13;;;19.78;100.00
11710;BME280;5911;51.036;6.972;2022-07-23T06:09:01;101019.16;;;19.79;100.00
11710;BME280;5911;51.036;6.972;2022-07-23T06:11:29;101015.97;;;19.76;100.00
11710;BME280;5911;51.036;6.972;2022-07-23T06:13:57;101012.78;;;19.80;100.00
11710;BME280;5911;51.036;6.972;2022-07-23T06:16:38;101008.25;;;19.81;100.00
11710;BME280;5911;51.036;6.972;2022-07-23T06:19:08;100973.78;;;19.55;100.00
11710;BME280;5911;51.036;6.972;2022-07-23T06:21:36;100994.63;;;19.67;100.00
11710;BME280;5911;51.036;6.972;2022-07-23T06:24:14;101022.16;;;19.84;100.00
11710;BME280;5911;51.036;6.972;2022-07-23T06:26:42;101019.28;;;19.86;100.00
11710;BME280;5911;51.036;6.972;2022-07-23T06:29:11;101022.59;;;19.88;100.00
11710;BME280;5911;51.036;6.972;2022-07-23T06:31:39;101025.28;;;19.88;100.00
11710;BME280;5911;51.036;6.972;2022-07-23T06:34:08;101019.91;;;19.88;100.00
11710;BME280;5911;51.036;6.972;2022-07-23T06:36:36;101019.75;;;19.89;100.00
11710;BME280;5911;51.036;6.972;2022-07-23T06:39:05;101018.41;;;19.93;100.00
11710;BME280;5911;51.036;6.972;2022-07-23T06:41:35;101018.22;;;19.95;100.00
11710;BME280;5911;51.036;6.972;2022-07-23T06:44:03;101018.91;;;19.89;100.00
11710;BME280;5911;51.036;6.972;2022-07-23T06:46:33;101025.78;;;19.91;100.00
11710;BME280;5911;51.036;6.972;2022-07-23T06:49:02;101024.75;;;19.92;100.00
11710;BME280;5911;51.036;6.972;2022-07-23T06:51:33;101029.28;;;19.92;100.00
11710;BME280;5911;51.036;6.972;2022-07-23T06:54:01;101024.59;;;19.94;100.00
11710;BME280;5911;51.036;6.972;2022-07-23T06:56:29;101025.25;;;19.96;100.00
11710;BME280;5911;51.036;6.972;2022-07-23T06:58:57;101025.75;;;19.99;100.00
11710;BME280;5911;51.036;6.972;2022-07-23T07:01:26;101026.59;;;19.92;100.00
11710;BME280;5911;51.036;6.972;2022-07-23T07:03:54;101034.78;;;19.98;100.00
11710;BME280;5911;51.036;6.972;2022-07-23T07:06:22;101037.63;;;19.97;100.00
11710;BME280;5911;51.036;6.972;2022-07-23T07:08:52;101026.59;;;19.92;100.00
11710;BME280;5911;51.036;6.972;2022-07-23T07:11:20;101028.28;;;19.93;100.00
11710;BME280;5911;51.036;6.972;2022-07-23T07:13:48;101026.94;;;19.89;100.00
11710;BME280;5911;51.036;6.972;2022-07-23T07:16:16;101043.00;;;19.97;100.00
11710;BME280;5911;51.036;6.972;2022-07-23T07:18:44;101042.16;;;19.96;100.00
11710;BME280;5911;51.036;6.972;2022-07-23T07:21:12;101048.34;;;19.97;100.00
11710;BME280;5911;51.036;6.972;2022-07-23T07:23:41;101045.31;;;20.00;100.00
11710;BME280;5911;51.036;6.972;2022-07-23T07:26:10;101046.00;;;19.94;100.00
11710;BME280;5911;51.036;6.972;2022-07-23T07:28:38;101037.50;;;19.90;100.00
11710;BME280;5911;51.036;6.972;2022-07-23T07:31:06;101033.47;;;19.94;100.00
11710;BME280;5911;51.036;6.972;2022-07-23T07:33:34;101055.63;;;20.11;100.00
11710;BME280;5911;51.036;6.972;2022-07-23T07:36:02;101044.94;;;20.03;100.00
11710;BME280;5911;51.036;6.972;2022-07-23T07:38:30;101040.31;;;19.97;100.00
11710;BME280;5911;51.036;6.972;2022-07-23T07:40:58;101032.69;;;19.86;100.00
11710;BME280;5911;51.036;6.972;2022-07-23T07:43:28;101028.69;;;19.82;100.00
11710;BME280;5911;51.036;6.972;2022-07-23T07:45:56;101060.63;;;20.14;100.00
11710;BME280;5911;51.036;6.972;2022-07-23T07:48:29;101049.28;;;20.04;100.00
11710;BME280;5911;51.036;6.972;2022-07-23T07:51:00;101056.94;;;20.15;100.00
11710;BME280;5911;51.036;6.972;2022-07-23T07:53:29;101032.88;;;20.07;100.00
11710;BME280;5911;51.036;6.972;2022-07-23T07:56:00;101063.50;;;20.35;100.00
11710;BME280;5911;51.036;6.972;2022-07-23T07:58:29;101069.50;;;20.46;100.00
11710;BME280;5911;51.036;6.972;2022-07-23T08:00:57;101069.13;;;20.49;100.00
11710;BME280;5911;51.036;6.972;2022-07-23T08:03:25;101071.28;;;20.53;100.00
11710;BME280;5911;51.036;6.972;2022-07-23T08:05:54;101075.38;;;20.64;100.00
11710;BME280;5911;51.036;6.972;2022-07-23T08:08:22;101086.09;;;20.64;100.00
11710;BME280;5911;51.036;6.972;2022-07-23T08:10:50;101080.69;;;20.72;100.00
11710;BME280;5911;51.036;6.972;2022-07-23T08:13:17;101085.31;;;20.78;100.00
11710;BME280;5911;51.036;6.972;2022-07-23T08:15:47;101082.47;;;20.80;100.00
11710;BME280;5911;51.036;6.972;2022-07-23T08:18:15;101088.50;;;20.82;100.00
11710;BME280;5911;51.036;6.972;2022-07-23T08:20:42;101080.88;;;20.70;100.00
11710;BME280;5911;51.036;6.972;2022-07-23T08:23:10;101076.34;;;20.71;100.00
11710;BME280;5911;51.036;6.972;2022-07-23T08:25:40;101085.31;;;20.78;100.00
11710;BME280;5911;51.036;6.972;2022-07-23T08:28:10;101099.22;;;20.82;100.00
11710;BME280;5911;51.036;6.972;2022-07-23T08:30:39;101100.06;;;20.82;100.00
11710;BME280;5911;51.036;6.972;2022-07-23T08:33:10;101104.75;;;20.80;100.00
11710;BME280;5911;51.036;6.972;2022-07-23T08:36:00;101104.41;;;20.83;100.00
11710;BME280;5911;51.036;6.972;2022-07-23T08:38:30;101099.03;;;20.83;100.00
11710;BME280;5911;51.036;6.972;2022-07-23T08:40:59;101093.50;;;20.85;100.00
11710;BME280;5911;51.036;6.972;2022-07-23T08:43:31;101095.03;;;20.79;100.00
11710;BME280;5911;51.036;6.972;2022-07-23T08:46:01;101076.41;;;20.63;100.00
11710;BME280;5911;51.036;6.972;2022-07-23T08:48:32;101100.72;;;20.84;100.00
11710;BME280;5911;51.036;6.972;2022-07-23T08:51:02;101098.81;;;20.93;100.00
11710;BME280;5911;51.036;6.972;2022-07-23T08:53:32;101104.44;;;20.98;100.00
11710;BME280;5911;51.036;6.972;2022-07-23T08:56:03;101108.91;;;21.05;100.00
11710;BME280;5911;51.036;6.972;2022-07-23T08:58:34;101115.97;;;21.06;100.00
11710;BME280;5911;51.036;6.972;2022-07-23T09:01:04;101092.59;;;20.92;100.00
11710;BME280;5911;51.036;6.972;2022-07-23T09:03:35;101119.25;;;21.08;100.00
11710;BME280;5911;51.036;6.972;2022-07-23T09:06:05;101120.00;;;21.02;100.00
11710;BME280;5911;51.036;6.972;2022-07-23T09:08:37;101117.25;;;21.11;100.00
11710;BME280;5911;51.036;6.972;2022-07-23T09:11:07;101117.72;;;21.14;100.00
11710;BME280;5911;51.036;6.972;2022-07-23T09:13:38;101118.19;;;21.18;100.00
11710;BME280;5911;51.036;6.972;2022-07-23T09:16:12;101113.19;;;21.15;100.00
11710;BME280;5911;51.036;6.972;2022-07-23T09:18:44;101107.81;;;21.15;100.00
11710;BME280;5911;51.036;6.972;2022-07-23T09:21:18;101107.34;;;21.11;100.00
11710;BME280;5911;51.036;6.972;2022-07-23T09:23:48;101123.56;;;21.18;100.00
11710;BME280;5911;51.036;6.972;2022-07-23T09:26:22;101121.22;;;21.15;100.00
11710;BME280;5911;51.036;6.972;2022-07-23T09:28:54;101124.91;;;21.22;100.00
11710;BME280;5911;51.036;6.972;2022-07-23T09:31:23;101106.97;;;21.14;100.00
11710;BME280;5911;51.036;6.972;2022-07-23T09:34:06;101126.47;;;21.31;100.00
11710;BME280;5911;51.036;6.972;2022-07-23T09:36:34;101111.50;;;21.22;100.00
11710;BME280;5911;51.036;6.972;2022-07-23T09:39:03;101141.22;;;21.35;100.00
11710;BME280;5911;51.036;6.972;2022-07-23T09:41:38;101137.13;;;21.39;100.00
11710;BME280;5911;51.036;6.972;2022-07-23T09:44:08;101145.13;;;21.47;100.00
11710;BME280;5911;51.036;6.972;2022-07-23T09:46:36;101145.59;;;21.51;100.00
11710;BME280;5911;51.036;6.972;2022-07-23T09:49:18;101142.06;;;21.50;100.00
11710;BME280;5911;51.036;6.972;2022-07-23T09:51:50;101133.25;;;21.56;100.00
11710;BME280;5911;51.036;6.972;2022-07-23T09:54:27;101134.56;;;21.60;100.00
11710;BME280;5911;51.036;6.972;2022-07-23T09:56:58;101136.59;;;21.58;100.00
11710;BME280;5911;51.036;6.972;2022-07-23T09:59:28;100937.41;;;20.37;100.00
11710;BME280;5911;51.036;6.972;2022-07-23T10:01:58;101136.78;;;21.57;100.00
11710;BME280;5911;51.036;6.972;2022-07-23T10:04:29;101135.88;;;21.64;100.00
11710;BME280;5911;51.036;6.972;2022-07-23T10:07:05;101124.38;;;21.70;100.00
11710;BME280;5911;51.036;6.972;2022-07-23T10:09:52;101109.84;;;21.65;100.00
11710;BME280;5911;51.036;6.972;2022-07-23T10:12:43;101125.31;;;21.77;100.00
11710;BME280;5911;51.036;6.972;2022-07-23T10:15:46;101104.31;;;21.66;100.00
11710;BME280;5911;51.036;6.972;2022-07-23T10:18:14;101127.88;;;21.86;100.00
11710;BME280;5911;51.036;6.972;2022-07-23T10:20:46;101130.69;;;21.92;100.00
11710;BME280;5911;51.036;6.972;2022-07-23T10:23:33;101129.56;;;21.87;98.55
11710;BME280;5911;51.036;6.972;2022-07-23T10:26:08;101122.34;;;21.87;98.12
11710;BME280;5911;51.036;6.972;2022-07-23T10:28:47;101120.59;;;21.94;97.14
11710;BME280;5911;51.036;6.972;2022-07-23T10:31:28;101109.66;;;21.96;97.81
11710;BME280;5911;51.036;6.972;2022-07-23T10:34:23;101125.47;;;22.20;97.08
11710;BME280;5911;51.036;6.972;2022-07-23T10:36:58;101126.41;;;22.27;92.85
11710;BME280;5911;51.036;6.972;2022-07-23T10:39:29;101126.75;;;22.39;93.19
11710;BME280;5911;51.036;6.972;2022-07-23T10:42:08;101135.78;;;22.53;95.45
11710;BME280;5911;51.036;6.972;2022-07-23T10:44:41;101125.94;;;22.60;92.42
11710;BME280;5911;51.036;6.972;2022-07-23T10:47:10;101124.94;;;22.82;94.68
11710;BME280;5911;51.036;6.972;2022-07-23T10:50:20;101121.25;;;23.11;86.64
11710;BME280;5911;51.036;6.972;2022-07-23T10:53:11;101112.69;;;23.57;84.04
11710;BME280;5911;51.036;6.972;2022-07-23T10:55:42;101118.06;;;23.91;83.54
11710;BME280;5911;51.036;6.972;2022-07-23T10:58:12;101111.19;;;24.23;84.44
11710;BME280;5911;51.036;6.972;2022-07-23T11:00:46;101117.09;;;24.53;82.71
11710;BME280;5911;51.036;6.972;2022-07-23T11:03:38;101126.06;;;24.73;81.55
11710;BME280;5911;51.036;6.972;2022-07-23T11:06:06;101125.06;;;24.94;79.05
11710;BME280;5911;51.036;6.972;2022-07-23T11:08:35;101127.34;;;25.10;74.05
11710;BME280;5911;51.036;6.972;2022-07-23T11:11:10;101122.75;;;25.44;77.11
11710;BME280;5911;51.036;6.972;2022-07-23T11:13:42;101114.03;;;25.62;72.19
11710;BME280;5911;51.036;6.972;2022-07-23T11:16:20;101110.66;;;25.59;64.61
11710;BME280;5911;51.036;6.972;2022-07-23T11:19:03;101119.78;;;25.78;65.23
11710;BME280;5911;51.036;6.972;2022-07-23T11:21:46;101121.34;;;26.06;70.90
11710;BME280;5911;51.036;6.972;2022-07-23T11:24:17;101131.03;;;26.33;68.28
11710;BME280;5911;51.036;6.972;2022-07-23T11:26:54;101130.81;;;26.28;59.78
11710;BME280;5911;51.036;6.972;2022-07-23T11:29:45;101129.41;;;26.25;56.86
11710;BME280;5911;51.036;6.972;2022-07-23T11:32:38;101126.16;;;26.48;62.23
11710;BME280;5911;51.036;6.972;2022-07-23T11:35:24;101118.31;;;26.72;60.54
11710;BME280;5911;51.036;6.972;2022-07-23T11:37:54;101129.75;;;26.74;59.98
11710;BME280;5911;51.036;6.972;2022-07-23T11:40:32;101106.16;;;26.81;58.60
11710;BME280;5911;51.036;6.972;2022-07-23T11:43:01;101133.13;;;27.25;58.46
11710;BME280;5911;51.036;6.972;2022-07-23T11:45:33;101122.72;;;27.22;54.43
11710;BME280;5911;51.036;6.972;2022-07-23T11:48:01;101112.06;;;27.27;54.87
11710;BME280;5911;51.036;6.972;2022-07-23T11:50:30;101119.16;;;27.47;54.63
11710;BME280;5911;51.036;6.972;2022-07-23T11:52:58;101116.97;;;27.37;49.93
11710;BME280;5911;51.036;6.972;2022-07-23T11:55:26;101123.91;;;27.51;50.88
11710;BME280;5911;51.036;6.972;2022-07-23T11:57:56;101124.78;;;27.70;51.92
11710;BME280;5911;51.036;6.972;2022-07-23T12:00:28;101106.84;;;27.69;52.42
11710;BME280;5911;51.036;6.972;2022-07-23T12:02:58;101120.56;;;27.92;50.31
11710;BME280;5911;51.036;6.972;2022-07-23T12:05:31;101130.78;;;28.27;50.84
11710;BME280;5911;51.036;6.972;2022-07-23T12:08:01;101126.13;;;28.34;51.27
11710;BME280;5911;51.036;6.972;2022-07-23T12:10:30;101126.56;;;28.31;47.01
11710;BME280;5911;51.036;6.972;2022-07-23T12:13:04;101135.16;;;28.28;45.43
11710;BME280;5911;51.036;6.972;2022-07-23T12:15:34;101129.06;;;28.32;44.82
11710;BME280;5911;51.036;6.972;2022-07-23T12:18:05;101128.44;;;28.60;46.38
11710;BME280;5911;51.036;6.972;2022-07-23T12:20:36;101112.75;;;28.62;47.31
11710;BME280;5911;51.036;6.972;2022-07-23T12:23:06;101134.81;;;28.54;45.91
11710;BME280;5911;51.036;6.972;2022-07-23T12:25:36;101125.94;;;28.47;46.00
11710;BME280;5911;51.036;6.972;2022-07-23T12:28:09;101132.56;;;28.51;45.64
11710;BME280;5911;51.036;6.972;2022-07-23T12:30:39;101125.72;;;28.60;48.11
11710;BME280;5911;51.036;6.972;2022-07-23T12:33:08;101128.59;;;28.65;48.23
11710;BME280;5911;51.036;6.972;2022-07-23T12:35:39;101127.00;;;28.88;46.81
11710;BME280;5911;51.036;6.972;2022-07-23T12:38:09;101138.00;;;28.81;44.75
11710;BME280;5911;51.036;6.972;2022-07-23T12:40:42;101132.81;;;29.03;46.87
11710;BME280;5911;51.036;6.972;2022-07-23T12:43:19;101132.94;;;28.96;47.20
11710;BME280;5911;51.036;6.972;2022-07-23T12:45:49;101131.28;;;28.84;45.51
11710;BME280;5911;51.036;6.972;2022-07-23T12:48:22;101133.09;;;28.72;44.20
11710;BME280;5911;51.036;6.972;2022-07-23T12:50:57;101147.69;;;28.89;45.56
11710;BME280;5911;51.036;6.972;2022-07-23T12:53:27;101134.22;;;28.94;45.56
11710;BME280;5911;51.036;6.972;2022-07-23T12:56:04;101140.97;;;28.91;48.19
11710;BME280;5911;51.036;6.972;2022-07-23T12:58:45;101142.16;;;29.07;45.84
11710;BME280;5911;51.036;6.972;2022-07-23T13:01:27;101139.59;;;29.12;46.64
11710;BME280;5911;51.036;6.972;2022-07-23T13:03:59;101136.94;;;28.94;45.24
11710;BME280;5911;51.036;6.972;2022-07-23T13:06:28;101144.50;;;28.92;45.58
11710;BME280;5911;51.036;6.972;2022-07-23T13:08:57;101143.78;;;28.85;46.45
11710;BME280;5911;51.036;6.972;2022-07-23T13:11:27;101144.28;;;28.93;47.12
11710;BME280;5911;51.036;6.972;2022-07-23T13:13:58;101141.25;;;29.13;47.49
11710;BME280;5911;51.036;6.972;2022-07-23T13:16:27;101144.41;;;29.10;47.63